Lorenzo, Idaho
Current Conditions -  °F | °C
As of 5:53 AM on Friday 28 Nov 2014 (Local Time) from KRXE Reporting Station
Clear Clear  
Wind Chill:   Ceiling: Unl
Heat Index:   Visibility: 10mi
Dew Point: -4°   Wind: 10mph
Humidity: 49%   Direction: 220°SW
Pressure: 29.9"   Gusts: NA
Location:  43.6749°N, 111.89°W
Report Text: KRXE 281253Z AUTO 22009KT 10SM CLR 06/M04 A2990 RMK AO2 SLP116 T00611039
Loading
Personal Weather Stations






























Interactive Weather Map New forecast layout! Learn more

10-Day Weather Forecast

Advertisements
Track Severe Weather on mobile